createdAt,value
2018-09-22T00:00:07.953Z,101055.00
2018-09-22T00:06:12.648Z,101059.00
2018-09-22T00:12:16.582Z,101071.00
2018-09-22T00:18:20.059Z,101099.00
2018-09-22T00:24:23.600Z,101088.00
2018-09-22T00:30:27.360Z,101141.00
2018-09-22T00:36:31.060Z,101150.00
2018-09-22T00:42:35.433Z,101130.00
2018-09-22T00:48:39.183Z,101141.00
2018-09-22T00:54:43.842Z,101148.00
2018-09-22T01:00:48.127Z,101146.00
2018-09-22T01:06:51.773Z,101144.00
2018-09-22T01:12:56.074Z,101145.00
2018-09-22T01:18:59.680Z,101153.00
2018-09-22T01:25:03.279Z,101176.00
2018-09-22T01:31:07.019Z,101172.00
2018-09-22T01:37:10.607Z,101189.00
2018-09-22T01:43:14.027Z,101190.00
2018-09-22T01:49:17.489Z,101200.00
2018-09-22T01:55:20.951Z,101186.00
2018-09-22T02:01:25.238Z,101190.00
2018-09-22T02:07:29.438Z,101193.00
2018-09-22T02:13:33.011Z,101203.00
2018-09-22T02:19:36.771Z,101209.00
2018-09-22T02:25:41.345Z,101208.00
2018-09-22T02:31:45.448Z,101224.00
2018-09-22T02:37:49.154Z,101226.00
2018-09-22T02:43:52.662Z,101229.00
2018-09-22T02:49:56.931Z,101221.00
2018-09-22T02:56:00.526Z,101235.00
2018-09-22T03:02:04.655Z,101240.00
2018-09-22T03:08:09.055Z,101236.00
2018-09-22T03:14:12.853Z,101227.00
2018-09-22T03:20:17.463Z,101228.00
2018-09-22T03:26:21.371Z,101239.00
2018-09-22T03:32:25.180Z,101258.00
2018-09-22T03:38:29.310Z,101249.00
2018-09-22T03:44:33.019Z,101262.00
2018-09-22T03:50:37.166Z,101249.00
2018-09-22T03:56:41.551Z,101239.00
2018-09-22T04:02:45.422Z,101244.00
2018-09-22T04:08:49.684Z,101258.00
2018-09-22T04:14:54.165Z,101256.00
2018-09-22T04:20:57.846Z,101273.00
2018-09-22T04:27:01.270Z,101277.00
2018-09-22T04:33:05.031Z,101294.00
2018-09-22T04:39:09.569Z,101286.00
2018-09-22T04:45:13.301Z,101297.00
2018-09-22T04:51:17.737Z,101290.00
2018-09-22T04:57:22.342Z,101291.00
2018-09-22T05:03:26.140Z,101299.00
2018-09-22T05:09:30.046Z,101295.00
2018-09-22T05:15:34.104Z,101307.00
2018-09-22T05:21:37.841Z,101314.00
2018-09-22T05:27:41.490Z,101322.00
2018-09-22T05:33:45.214Z,101346.00
2018-09-22T05:39:50.142Z,101344.00
2018-09-22T05:45:54.110Z,101341.00
2018-09-22T05:51:58.626Z,101339.00
2018-09-22T05:58:03.140Z,101350.00
2018-09-22T06:04:07.438Z,101349.00
2018-09-22T06:10:13.434Z,101357.00
2018-09-22T06:16:17.142Z,101358.00
2018-09-22T06:22:21.143Z,101350.00
2018-09-22T06:28:25.849Z,101344.00
2018-09-22T06:34:29.536Z,101336.00
2018-09-22T06:40:33.371Z,101342.00
2018-09-22T06:46:37.105Z,101374.00
2018-09-22T06:52:40.696Z,101379.00
2018-09-22T06:58:44.717Z,101365.00
2018-09-22T07:04:48.306Z,101375.00
2018-09-22T07:10:52.311Z,101372.00
2018-09-22T07:16:55.898Z,101367.00
2018-09-22T07:23:05.914Z,101373.00
2018-09-22T07:29:09.737Z,101371.00
2018-09-22T07:35:13.457Z,101393.00
2018-09-22T07:41:17.682Z,101393.00
2018-09-22T07:47:21.550Z,101378.00
2018-09-22T07:53:25.479Z,101371.00
2018-09-22T07:59:30.073Z,101389.00
2018-09-22T08:05:33.974Z,101397.00
2018-09-22T08:11:39.209Z,101404.00
2018-09-22T08:17:42.777Z,101397.00
2018-09-22T08:23:46.247Z,101416.00
2018-09-22T08:29:50.554Z,101410.00
2018-09-22T08:35:54.301Z,101421.00
2018-09-22T08:41:57.734Z,101404.00
2018-09-22T08:48:01.201Z,101397.00
2018-09-22T08:54:04.697Z,101405.00
2018-09-22T09:00:08.446Z,101382.00
2018-09-22T09:06:12.021Z,101392.00
2018-09-22T09:12:15.513Z,101401.00
2018-09-22T09:18:19.109Z,101417.00
2018-09-22T09:24:22.586Z,101417.00
2018-09-22T09:30:26.089Z,101394.00
2018-09-22T09:36:29.650Z,101389.00
2018-09-22T09:42:33.433Z,101367.00
2018-09-22T09:48:37.005Z,101359.00
2018-09-22T09:54:41.423Z,101363.00
2018-09-22T10:00:45.969Z,101352.00
2018-09-22T10:06:49.491Z,101340.00
2018-09-22T10:12:53.086Z,101329.00
2018-09-22T10:18:56.755Z,101314.00
2018-09-22T10:25:00.248Z,101338.00
2018-09-22T10:31:03.999Z,101320.00
2018-09-22T10:37:07.445Z,101320.00
2018-09-22T10:43:11.014Z,101312.00
2018-09-22T10:49:14.441Z,101319.00
2018-09-22T10:55:17.758Z,101314.00
2018-09-22T11:01:23.109Z,101313.00
2018-09-22T11:07:26.751Z,101329.00
2018-09-22T11:13:30.226Z,101313.00
2018-09-22T11:19:33.896Z,101321.00
2018-09-22T11:25:37.930Z,101325.00
2018-09-22T11:31:41.545Z,101310.00
2018-09-22T11:37:44.972Z,101305.00
2018-09-22T11:43:55.006Z,101303.00
2018-09-22T11:49:58.438Z,101291.00
2018-09-22T11:56:01.976Z,101300.00
2018-09-22T12:02:05.498Z,101270.00
2018-09-22T12:08:09.698Z,101272.00
2018-09-22T12:14:13.464Z,101289.00
2018-09-22T12:20:17.067Z,101289.00
2018-09-22T12:26:21.308Z,101284.00
2018-09-22T12:32:25.478Z,101303.00
2018-09-22T12:38:29.656Z,101302.00
2018-09-22T12:44:33.240Z,101309.00
2018-09-22T12:50:36.906Z,101309.00
2018-09-22T12:56:40.414Z,101308.00
2018-09-22T13:02:43.954Z,101297.00
2018-09-22T13:08:50.353Z,101300.00
2018-09-22T13:14:53.754Z,101294.00
2018-09-22T13:20:57.180Z,101295.00
2018-09-22T13:27:00.654Z,101267.00
2018-09-22T13:33:04.164Z,101280.00
2018-09-22T13:39:11.286Z,101270.00
2018-09-22T13:45:15.001Z,101267.00
2018-09-22T13:51:18.749Z,101305.00
2018-09-22T13:57:22.225Z,101310.00
2018-09-22T14:03:25.631Z,101316.00
2018-09-22T14:09:29.145Z,101292.00
2018-09-22T14:15:33.245Z,101266.00
2018-09-22T14:21:36.804Z,101247.00
2018-09-22T14:27:40.606Z,101245.00
2018-09-22T14:33:44.896Z,101275.00
2018-09-22T14:39:48.349Z,101289.00
2018-09-22T14:45:53.046Z,101308.00
2018-09-22T14:51:56.466Z,101309.00
2018-09-22T14:58:00.026Z,101306.00
2018-09-22T15:04:03.490Z,101293.00
2018-09-22T15:10:07.048Z,101294.00
2018-09-22T15:16:10.822Z,101298.00
2018-09-22T15:22:14.308Z,101294.00
2018-09-22T15:28:17.741Z,101286.00
2018-09-22T15:34:22.005Z,101298.00
2018-09-22T15:40:25.607Z,101301.00
2018-09-22T15:46:29.000Z,101301.00
2018-09-22T15:52:32.820Z,101293.00
2018-09-22T15:58:37.543Z,101302.00
2018-09-22T16:04:41.779Z,101301.00
2018-09-22T16:10:45.107Z,101299.00
2018-09-22T16:16:48.739Z,101294.00
2018-09-22T16:22:53.123Z,101290.00
2018-09-22T16:28:57.613Z,101286.00
2018-09-22T16:35:01.657Z,101267.00
2018-09-22T16:41:05.217Z,101274.00
2018-09-22T16:47:08.877Z,101267.00
2018-09-22T16:53:13.249Z,101275.00
2018-09-22T16:59:17.710Z,101272.00
2018-09-22T17:05:21.613Z,101283.00
2018-09-22T17:11:25.262Z,101256.00
2018-09-22T17:17:30.209Z,101270.00
2018-09-22T17:23:33.941Z,101257.00
2018-09-22T17:29:37.757Z,101251.00
2018-09-22T17:35:42.292Z,101258.00
2018-09-22T17:41:46.536Z,101261.00
2018-09-22T17:47:50.732Z,101284.00
2018-09-22T17:53:55.365Z,101280.00
2018-09-22T17:59:59.635Z,101275.00
2018-09-22T18:06:03.472Z,101266.00
2018-09-22T18:12:07.769Z,101271.00
2018-09-22T18:18:12.088Z,101286.00
2018-09-22T18:24:16.903Z,101267.00
2018-09-22T18:30:20.941Z,101288.00
2018-09-22T18:36:25.786Z,101287.00
2018-09-22T18:42:31.316Z,101261.00
2018-09-22T18:48:36.172Z,101283.00
2018-09-22T18:54:40.485Z,101291.00
2018-09-22T19:00:44.346Z,101290.00
2018-09-22T19:06:48.392Z,101287.00
2018-09-22T19:12:57.003Z,101273.00
2018-09-22T19:19:04.941Z,101270.00
2018-09-22T19:25:13.451Z,101256.00
2018-09-22T19:31:22.425Z,101262.00
2018-09-22T19:37:32.369Z,101275.00
2018-09-22T19:44:47.720Z,101276.00
2018-09-22T19:51:04.049Z,101264.00
2018-09-22T19:57:08.205Z,101258.00
2018-09-22T20:03:13.032Z,101271.00
2018-09-22T20:09:17.239Z,101253.00
2018-09-22T20:15:22.151Z,101257.00
2018-09-22T20:21:27.134Z,101251.00
2018-09-22T20:27:31.140Z,101247.00
2018-09-22T20:33:35.642Z,101237.00
2018-09-22T20:39:40.261Z,101235.00
2018-09-22T20:45:45.393Z,101231.00
2018-09-22T20:51:53.508Z,101231.00
2018-09-22T20:57:57.476Z,101203.00
2018-09-22T21:04:02.603Z,101201.00
2018-09-22T21:10:06.680Z,101197.00
2018-09-22T21:16:10.361Z,101187.00
2018-09-22T21:22:14.381Z,101192.00
2018-09-22T21:28:18.965Z,101197.00
2018-09-22T21:34:23.378Z,101191.00
2018-09-22T21:40:27.454Z,101177.00
2018-09-22T21:46:31.889Z,101171.00
2018-09-22T21:52:35.967Z,101167.00
2018-09-22T21:58:40.130Z,101158.00
2018-09-22T22:04:44.310Z,101164.00
2018-09-22T22:10:48.795Z,101139.00
2018-09-22T22:16:53.258Z,101131.00
2018-09-22T22:22:57.793Z,101139.00
2018-09-22T22:29:03.032Z,101143.00
2018-09-22T22:35:07.453Z,101137.00
2018-09-22T22:41:12.499Z,101130.00
2018-09-22T22:47:16.182Z,101119.00
2018-09-22T22:53:20.622Z,101113.00
2018-09-22T22:59:24.138Z,101103.00
2018-09-22T23:05:27.806Z,101106.00
2018-09-22T23:11:32.346Z,101091.00
2018-09-22T23:17:37.965Z,101059.00
2018-09-22T23:23:43.261Z,101066.00
2018-09-22T23:29:47.086Z,101059.00
2018-09-22T23:35:51.856Z,101068.00
2018-09-22T23:41:57.379Z,101056.00
2018-09-22T23:48:01.475Z,101037.00
2018-09-22T23:54:06.597Z,101030.00
